^^
Meteo Knjazevac Station Historical Data
Daily Summary for January 15, 2022 Units:  Metric    English   Both
Daily Weekly Monthly Yearly Custom
  High: Low: Average:
Temperature: 8.6 °C -2.3 °C 3.7 °C
Dew Point: 1.6 °C -4.4 °C -0.3 °C
Humidity: 86% 54% 76%
Wind Speed: 22.5km/h 0km/h 9km/h
Wind Gust: 33.8km/h - -
Wind- - WSW
Pressure: 1029 hPa 1023.2 hPa -
Precipitation: 0 mm    
Historical Graphs
 
 
Tabular Data for January 15, 2022
Time Temperature Dew Point Pressure Wind Wind Speed Wind Gust Humidity Rainfall Rate (Hourly) solar Conditions
00:00 2.5 °C 0.4 °C 1023.6 hPa WSW 3.2 km/h 9.7 km/h 86% 0 mm 0 W/m2
00:10 2.8 °C 0.7 °C 1023.2 hPa South 8 km/h 12.9 km/h 86% 0 mm 0 W/m2
00:20 3.1 °C 1 °C 1023.2 hPa SSE 3.2 km/h 14.5 km/h 86% 0 mm 0 W/m2
00:30 3.4 °C 1.1 °C 1023.2 hPa South 8 km/h 14.5 km/h 85% 0 mm 0 W/m2
00:40 3.9 °C 1.4 °C 1023.2 hPa SSW 4.8 km/h 14.5 km/h 84% 0 mm 0 W/m2
00:50 4 °C 1.6 °C 1023.2 hPa South 9.7 km/h 12.9 km/h 84% 0 mm 0 W/m2
01:00 4 °C 1.4 °C 1023.2 hPa SSW 8 km/h 14.5 km/h 83% 0 mm 0 W/m2
01:10 4.2 °C 1.2 °C 1023.2 hPa SSW 8 km/h 14.5 km/h 81% 0 mm 0 W/m2
01:20 4.4 °C 1.4 °C 1023.2 hPa SW 9.7 km/h 14.5 km/h 81% 0 mm 0 W/m2
01:30 4.3 °C 1.2 °C 1023.2 hPa SW 11.3 km/h 17.7 km/h 80% 0 mm 0 W/m2
01:40 4.3 °C 1.2 °C 1023.2 hPa SSW 9.7 km/h 17.7 km/h 80% 0 mm 0 W/m2
01:50 4.3 °C 1.2 °C 1023.2 hPa SSW 12.9 km/h 19.3 km/h 80% 0 mm 0 W/m2
02:00 4.4 °C 1.1 °C 1023.6 hPa SSW 11.3 km/h 20.9 km/h 79% 0 mm 0 W/m2
02:10 4.5 °C 1.2 °C 1023.6 hPa SSW 8 km/h 17.7 km/h 79% 0 mm 0 W/m2
02:20 4.5 °C 1.2 °C 1023.6 hPa South 9.7 km/h 19.3 km/h 79% 0 mm 0 W/m2
02:30 4.5 °C 1 °C 1023.6 hPa SW 8 km/h 16.1 km/h 78% 0 mm 0 W/m2
02:40 4.5 °C 1 °C 1023.6 hPa SW 8 km/h 14.5 km/h 78% 0 mm 0 W/m2
02:50 4.5 °C 1 °C 1023.6 hPa SW 11.3 km/h 19.3 km/h 78% 0 mm 0 W/m2
03:00 4.6 °C 0.9 °C 1023.6 hPa SW 11.3 km/h 19.3 km/h 77% 0 mm 0 W/m2
03:10 4.4 °C 0.9 °C 1023.9 hPa SW 8 km/h 12.9 km/h 78% 0 mm 0 W/m2
03:20 4.4 °C 0.9 °C 1023.9 hPa SW 8 km/h 19.3 km/h 78% 0 mm 0 W/m2
03:30 4.5 °C 1 °C 1023.9 hPa WSW 4.8 km/h 19.3 km/h 78% 0 mm 0 W/m2
03:40 4.5 °C 1 °C 1023.9 hPa WSW 4.8 km/h 11.3 km/h 78% 0 mm 0 W/m2
03:50 4.5 °C 1 °C 1023.9 hPa WSW 9.7 km/h 14.5 km/h 78% 0 mm 0 W/m2
04:00 4.5 °C 1 °C 1024.3 hPa SW 8 km/h 17.7 km/h 78% 0 mm 0 W/m2
04:10 4.5 °C 1 °C 1024.3 hPa SW 11.3 km/h 16.1 km/h 78% 0 mm 0 W/m2
04:20 4.5 °C 1 °C 1024.3 hPa SW 11.3 km/h 17.7 km/h 78% 0 mm 0 W/m2
04:30 4.4 °C 1.1 °C 1024.3 hPa WSW 11.3 km/h 16.1 km/h 79% 0 mm 0 W/m2
04:40 4.3 °C 1 °C 1024.3 hPa SW 16.1 km/h 24.1 km/h 79% 0 mm 0 W/m2
04:50 4.3 °C 1 °C 1024.3 hPa SW 22.5 km/h 33.8 km/h 79% 0 mm 0 W/m2
05:00 4.2 °C 1.1 °C 1024.3 hPa WSW 12.9 km/h 25.7 km/h 80% 0 mm 0 W/m2
05:10 4.2 °C 1.1 °C 1024.6 hPa WSW 12.9 km/h 20.9 km/h 80% 0 mm 0 W/m2
05:20 4.1 °C 0.9 °C 1024.6 hPa WSW 9.7 km/h 20.9 km/h 80% 0 mm 0 W/m2
05:30 4 °C 0.8 °C 1024.6 hPa WSW 11.3 km/h 20.9 km/h 80% 0 mm 0 W/m2
05:40 4 °C 1.1 °C 1024.6 hPa WSW 12.9 km/h 24.1 km/h 81% 0 mm 0 W/m2
05:50 3.9 °C 0.9 °C 1024.6 hPa WSW 12.9 km/h 24.1 km/h 81% 0 mm 0 W/m2
06:00 3.8 °C 0.8 °C 1024.6 hPa WSW 4.8 km/h 24.1 km/h 81% 0 mm 0 W/m2
06:10 3.6 °C 0.7 °C 1024.6 hPa West 9.7 km/h 17.7 km/h 81% 0 mm 0 W/m2
06:20 3.5 °C 0.9 °C 1024.9 hPa WSW 4.8 km/h 16.1 km/h 83% 0 mm 0 W/m2
06:30 3.3 °C 0.7 °C 1024.9 hPa West 3.2 km/h 8 km/h 83% 0 mm 0 W/m2
06:40 3.2 °C 0.6 °C 1024.9 hPa West 12.9 km/h 25.7 km/h 83% 0 mm 0 W/m2
06:50 3.3 °C 0.7 °C 1024.9 hPa West 14.5 km/h 27.4 km/h 83% 0 mm 0 W/m2
07:00 3.2 °C 0.8 °C 1025.3 hPa West 16.1 km/h 32.2 km/h 84% 0 mm 0 W/m2
07:10 3.1 °C 0.7 °C 1025.3 hPa West 19.3 km/h 32.2 km/h 84% 0 mm 9 W/m2
07:20 3 °C 0.6 °C 1025.3 hPa West 19.3 km/h 27.4 km/h 84% 0 mm 11 W/m2
07:30 2.9 °C 0.6 °C 1025.6 hPa West 19.3 km/h 29 km/h 85% 0 mm 25 W/m2
07:40 2.9 °C 0.6 °C 1025.6 hPa West 19.3 km/h 29 km/h 85% 0 mm 40 W/m2
07:50 2.9 °C 0.6 °C 1026 hPa West 19.3 km/h 29 km/h 85% 0 mm 57 W/m2
08:00 3 °C 0.6 °C 1025.6 hPa West 16.1 km/h 29 km/h 84% 0 mm 76 W/m2
08:10 3.2 °C 0.8 °C 1026 hPa West 12.9 km/h 27.4 km/h 84% 0 mm 98 W/m2
08:20 3.4 °C 0.8 °C 1026 hPa West 16.1 km/h 25.7 km/h 83% 0 mm 121 W/m2
08:30 3.7 °C 1.1 °C 1026 hPa WSW 11.3 km/h 24.1 km/h 83% 0 mm 141 W/m2
08:40 3.9 °C 0.9 °C 1026 hPa WSW 16.1 km/h 27.4 km/h 81% 0 mm 161 W/m2
08:50 4 °C 1.1 °C 1026 hPa West 14.5 km/h 24.1 km/h 81% 0 mm 181 W/m2
09:00 4.2 °C 1.1 °C 1026 hPa West 16.1 km/h 27.4 km/h 80% 0 mm 200 W/m2
09:10 4.4 °C 1.2 °C 1026.3 hPa West 14.5 km/h 24.1 km/h 80% 0 mm 219 W/m2
09:20 4.5 °C 1.2 °C 1026.3 hPa West 14.5 km/h 25.7 km/h 79% 0 mm 236 W/m2
09:30 4.8 °C 1.4 °C 1026.3 hPa West 16.1 km/h 27.4 km/h 79% 0 mm 253 W/m2
09:40 5 °C 1.5 °C 1026.6 hPa West 11.3 km/h 24.1 km/h 78% 0 mm 269 W/m2
09:50 5.2 °C 1.5 °C 1026.6 hPa West 11.3 km/h 22.5 km/h 77% 0 mm 284 W/m2
10:00 5.4 °C 1.3 °C 1026.6 hPa WNW 11.3 km/h 27.4 km/h 75% 0 mm 298 W/m2
10:10 5.7 °C 1.4 °C 1026.6 hPa West 11.3 km/h 20.9 km/h 74% 0 mm 311 W/m2
10:20 6 °C 1.5 °C 1026.6 hPa WNW 14.5 km/h 22.5 km/h 73% 0 mm 322 W/m2
10:30 6.1 °C 1.4 °C 1026.6 hPa West 12.9 km/h 22.5 km/h 72% 0 mm 332 W/m2
10:40 6.5 °C 1.4 °C 1026.6 hPa West 9.7 km/h 19.3 km/h 70% 0 mm 341 W/m2
10:50 6.7 °C 1.4 °C 1026.3 hPa WNW 11.3 km/h 19.3 km/h 69% 0 mm 349 W/m2
11:00 6.9 °C 1.4 °C 1026.3 hPa West 11.3 km/h 19.3 km/h 68% 0 mm 355 W/m2
11:10 7.1 °C 1.4 °C 1026.3 hPa West 14.5 km/h 19.3 km/h 67% 0 mm 359 W/m2
11:20 7.2 °C 1.1 °C 1026.3 hPa West 9.7 km/h 22.5 km/h 65% 0 mm 363 W/m2
11:30 7.3 °C 1.2 °C 1026.3 hPa West 11.3 km/h 19.3 km/h 65% 0 mm 364 W/m2
11:40 7.4 °C 1.1 °C 1026.3 hPa West 11.3 km/h 19.3 km/h 64% 0 mm 365 W/m2
11:50 7.5 °C 0.9 °C 1026 hPa West 11.3 km/h 19.3 km/h 63% 0 mm 363 W/m2
12:00 7.8 °C 1.2 °C 1026 hPa West 8 km/h 17.7 km/h 63% 0 mm 361 W/m2
12:10 7.9 °C 1.1 °C 1026 hPa West 11.3 km/h 19.3 km/h 62% 0 mm 357 W/m2
12:20 8 °C 0.7 °C 1026 hPa West 11.3 km/h 20.9 km/h 60% 0 mm 351 W/m2
12:30 8 °C 0.4 °C 1026 hPa West 9.7 km/h 19.3 km/h 59% 0 mm 345 W/m2
12:40 8.2 °C 0.4 °C 1026 hPa West 12.9 km/h 19.3 km/h 58% 0 mm 336 W/m2
12:50 8.3 °C 0.5 °C 1026 hPa West 11.3 km/h 19.3 km/h 58% 0 mm 327 W/m2
13:00 8.4 °C 0.4 °C 1026 hPa West 11.3 km/h 17.7 km/h 57% 0 mm 316 W/m2
13:10 8.6 °C 0.6 °C 1026 hPa West 8 km/h 16.1 km/h 57% 0 mm 304 W/m2
13:20 8.6 °C 0.8 °C 1026 hPa West 9.7 km/h 17.7 km/h 58% 0 mm 290 W/m2
13:30 8.6 °C 0.1 °C 1026 hPa West 11.3 km/h 20.9 km/h 55% 0 mm 276 W/m2
13:40 8.5 °C -0.1 °C 1025.6 hPa WSW 9.7 km/h 17.7 km/h 55% 0 mm 260 W/m2
13:50 8.5 °C -0.1 °C 1025.6 hPa West 9.7 km/h 17.7 km/h 55% 0 mm 244 W/m2
14:00 8.5 °C -0.3 °C 1025.6 hPa West 11.3 km/h 16.1 km/h 54% 0 mm 227 W/m2
14:10 8.4 °C -0.4 °C 1025.6 hPa West 11.3 km/h 19.3 km/h 54% 0 mm 208 W/m2
14:20 8.3 °C 0 °C 1025.6 hPa West 11.3 km/h 16.1 km/h 56% 0 mm 189 W/m2
14:30 8.2 °C -0.3 °C 1025.6 hPa West 8 km/h 16.1 km/h 55% 0 mm 170 W/m2
14:40 8.1 °C -0.7 °C 1025.6 hPa West 8 km/h 16.1 km/h 54% 0 mm 150 W/m2
14:50 8 °C -0.3 °C 1025.6 hPa WSW 11.3 km/h 19.3 km/h 56% 0 mm 130 W/m2
15:00 7.5 °C 0.9 °C 1025.6 hPa WSW 11.3 km/h 19.3 km/h 63% 0 mm 109 W/m2
15:10 7.2 °C 1 °C 1026 hPa SW 14.5 km/h 19.3 km/h 65% 0 mm 89 W/m2
15:20 6.8 °C 0.7 °C 1026 hPa SW 11.3 km/h 17.7 km/h 65% 0 mm 70 W/m2
15:30 6.5 °C 0.8 °C 1026.3 hPa WSW 11.3 km/h 19.3 km/h 67% 0 mm 51 W/m2
15:40 6.2 °C 0.7 °C 1026.3 hPa WSW 11.3 km/h 16.1 km/h 68% 0 mm 33 W/m2
15:50 5.8 °C 0.6 °C 1026.3 hPa WSW 12.9 km/h 19.3 km/h 69% 0 mm 17 W/m2
16:00 5.4 °C 0.4 °C 1026.3 hPa WSW 9.7 km/h 19.3 km/h 70% 0 mm 3 W/m2
16:10 5.1 °C 0.1 °C 1026.3 hPa SW 9.7 km/h 16.1 km/h 70% 0 mm 12 W/m2
16:20 4.7 °C -0.3 °C 1026.6 hPa WSW 9.7 km/h 16.1 km/h 70% 0 mm 0 W/m2
16:30 4.3 °C -0.9 °C 1026.6 hPa WSW 12.9 km/h 20.9 km/h 69% 0 mm 0 W/m2
16:40 3.9 °C -1 °C 1026.6 hPa WSW 9.7 km/h 19.3 km/h 70% 0 mm 0 W/m2
16:50 3.6 °C -1.4 °C 1027 hPa WSW 12.9 km/h 19.3 km/h 70% 0 mm 0 W/m2
17:00 3.4 °C -1.6 °C 1027 hPa WSW 12.9 km/h 25.7 km/h 70% 0 mm 0 W/m2
17:10 3.1 °C -1.4 °C 1027 hPa WSW 11.3 km/h 20.9 km/h 72% 0 mm 0 W/m2
17:20 2.9 °C -1.4 °C 1027 hPa WSW 9.7 km/h 16.1 km/h 73% 0 mm 0 W/m2
17:30 2.7 °C -1.7 °C 1027 hPa WSW 11.3 km/h 19.3 km/h 73% 0 mm 0 W/m2
17:40 2.5 °C -1.7 °C 1027 hPa WSW 12.9 km/h 20.9 km/h 74% 0 mm 0 W/m2
17:50 2.3 °C -1.7 °C 1027 hPa West 11.3 km/h 19.3 km/h 75% 0 mm 0 W/m2
18:00 2.1 °C -1.9 °C 1027.3 hPa WSW 3.2 km/h 12.9 km/h 75% 0 mm 0 W/m2
18:10 1.9 °C -2.1 °C 1027.3 hPa SW 4.8 km/h 8 km/h 75% 0 mm 0 W/m2
18:20 1.6 °C -2.1 °C 1027.3 hPa SW 3.2 km/h 9.7 km/h 77% 0 mm 0 W/m2
18:30 1.3 °C -2.3 °C 1027.3 hPa SSW 3.2 km/h 8 km/h 77% 0 mm 0 W/m2
18:40 0.9 °C -2.5 °C 1027.3 hPa South 3.2 km/h 8 km/h 78% 0 mm 0 W/m2
18:50 0.7 °C -2.5 °C 1027.3 hPa SSW 3.2 km/h 8 km/h 79% 0 mm 0 W/m2
19:00 0.4 °C -2.7 °C 1027.7 hPa SE 1.6 km/h 9.7 km/h 80% 0 mm 0 W/m2
19:10 0.2 °C -2.8 °C 1027.7 hPa Calm   4.8 km/h 80% 0 mm 0 W/m2
19:20 0 °C -3.1 °C 1027.7 hPa NW 1.6 km/h 3.2 km/h 80% 0 mm 0 W/m2
19:30 -0.2 °C -3.2 °C 1027.7 hPa Calm   4.8 km/h 80% 0 mm 0 W/m2
19:40 -0.4 °C -3.3 °C 1027.7 hPa Calm   3.2 km/h 81% 0 mm 0 W/m2
19:50 -0.6 °C -3.4 °C 1027.7 hPa Calm   8 km/h 81% 0 mm 0 W/m2
20:00 -0.8 °C -3.3 °C 1027.7 hPa Calm   4.8 km/h 83% 0 mm 0 W/m2
20:10 -0.9 °C -3.4 °C 1027.7 hPa North 3.2 km/h 3.2 km/h 83% 0 mm 0 W/m2
20:20 -1.1 °C -3.6 °C 1027.7 hPa North 1.6 km/h 4.8 km/h 83% 0 mm 0 W/m2
20:30 -1.2 °C -3.7 °C 1028 hPa Calm   3.2 km/h 83% 0 mm 0 W/m2
20:40 -1.3 °C -3.7 °C 1028.3 hPa Calm   6.4 km/h 84% 0 mm 0 W/m2
20:50 -1.3 °C -3.7 °C 1029 hPa Calm   6.4 km/h 84% 0 mm 0 W/m2
21:00 -1.5 °C -3.8 °C 1028 hPa South 1.6 km/h 8 km/h 84% 0 mm 0 W/m2
21:10 -1.7 °C -4.1 °C 1027.7 hPa SW 1.6 km/h 4.8 km/h 84% 0 mm 0 W/m2
21:20 -1.7 °C -3.9 °C 1028.3 hPa SE 1.6 km/h 9.7 km/h 85% 0 mm 0 W/m2
21:30 -1.7 °C -3.9 °C 1027.7 hPa SSW 3.2 km/h 6.4 km/h 85% 0 mm 0 W/m2
21:40 -1.8 °C -4 °C 1027.3 hPa South 3.2 km/h 9.7 km/h 85% 0 mm 0 W/m2
21:50 -1.9 °C -4.1 °C 1028.3 hPa North 1.6 km/h 4.8 km/h 85% 0 mm 0 W/m2
22:00 -2 °C -4.2 °C 1028 hPa NW 1.6 km/h 4.8 km/h 85% 0 mm 0 W/m2
22:10 -2.1 °C -4.3 °C 1027.7 hPa Calm   4.8 km/h 85% 0 mm 0 W/m2
22:20 -2.1 °C -4.3 °C 1028 hPa SSE 1.6 km/h 8 km/h 85% 0 mm 0 W/m2
22:30 -2.2 °C -4.4 °C 1028 hPa Calm   4.8 km/h 85% 0 mm 0 W/m2
22:40 -2.2 °C -4.2 °C 1028.3 hPa SSE 1.6 km/h 9.7 km/h 86% 0 mm 0 W/m2
22:50 -2.1 °C -4.1 °C 1028.7 hPa SE 1.6 km/h 8 km/h 86% 0 mm 0 W/m2
23:00 -2.2 °C -4.2 °C 1028.7 hPa WNW 1.6 km/h 3.2 km/h 86% 0 mm 0 W/m2
23:10 -2.3 °C -4.4 °C 1028.3 hPa Calm   4.8 km/h 86% 0 mm 0 W/m2
Knjazevac, Serbia
Compliments of Weather Underground - 2 mb